TimeCDT,TemperatureF,Dew PointF,Humidity,Sea Level PressureIn,VisibilityMPH,Wind Direction,Wind SpeedMPH,Gust SpeedMPH,PrecipitationIn,Events,Conditions,WindDirDegrees,DateUTC
12:53 AM,71.1,69.1,93,29.94,3.0,Calm,Calm,-,N/A,,Clear,0,2013-08-31 05:53:00
1:53 AM,72.0,70.0,93,29.94,4.0,Calm,Calm,-,N/A,,Mostly Cloudy,0,2013-08-31 06:53:00
2:29 AM,71.6,69.8,94,30.01,1.8,South,3.5,-,N/A,,Clear,190,2013-08-31 07:29:00
2:38 AM,71.6,69.8,94,30.01,3.0,South,3.5,-,N/A,,Partly Cloudy,180,2013-08-31 07:38:00
2:53 AM,71.1,69.1,93,29.94,4.0,Calm,Calm,-,N/A,,Partly Cloudy,0,2013-08-31 07:53:00
3:24 AM,71.6,69.8,94,30.00,5.0,Calm,Calm,-,N/A,,Mostly Cloudy,0,2013-08-31 08:24:00
3:49 AM,71.6,69.8,94,30.01,6.0,Calm,Calm,-,N/A,,Overcast,0,2013-08-31 08:49:00
3:53 AM,71.1,69.1,93,29.94,6.0,Calm,Calm,-,N/A,,Overcast,0,2013-08-31 08:53:00
4:53 AM,71.1,68.0,90,29.94,5.0,Calm,Calm,-,N/A,,Clear,0,2013-08-31 09:53:00
5:53 AM,70.0,68.0,93,29.95,4.0,Calm,Calm,-,0.01,,Clear,0,2013-08-31 10:53:00
6:53 AM,71.1,68.0,90,29.96,5.0,Calm,Calm,-,N/A,,Clear,0,2013-08-31 11:53:00
7:53 AM,73.9,70.0,87,29.96,6.0,Calm,Calm,-,N/A,,Clear,0,2013-08-31 12:53:00
8:53 AM,77.0,71.1,82,29.97,8.0,West,4.6,-,N/A,,Clear,260,2013-08-31 13:53:00
9:53 AM,82.0,71.1,69,29.97,10.0,WSW,5.8,-,N/A,,Clear,250,2013-08-31 14:53:00
10:53 AM,82.9,70.0,65,29.96,10.0,SSW,4.6,-,N/A,,Mostly Cloudy,210,2013-08-31 15:53:00
11:00 AM,84.2,69.8,62,30.03,10.0,Variable,4.6,-,N/A,,Mostly Cloudy,0,2013-08-31 16:00:00
11:07 AM,84.2,69.8,62,30.03,10.0,WNW,5.8,-,N/A,,Mostly Cloudy,300,2013-08-31 16:07:00
11:53 AM,84.0,64.9,53,29.96,10.0,West,8.1,-,N/A,,Partly Cloudy,280,2013-08-31 16:53:00
12:53 PM,84.9,66.9,55,29.94,10.0,West,6.9,-,N/A,,Partly Cloudy,280,2013-08-31 17:53:00
1:53 PM,86.0,66.0,51,29.92,10.0,Calm,Calm,-,N/A,,Clear,0,2013-08-31 18:53:00
2:53 PM,86.0,69.1,57,29.88,10.0,WNW,8.1,-,N/A,,Partly Cloudy,290,2013-08-31 19:53:00
3:53 PM,84.9,70.0,61,29.88,10.0,WSW,8.1,-,N/A,,Clear,250,2013-08-31 20:53:00
4:53 PM,80.1,70.0,71,29.88,10.0,WSW,4.6,-,N/A,,Clear,240,2013-08-31 21:53:00
5:53 PM,78.1,70.0,76,29.89,9.0,Calm,Calm,-,N/A,,Clear,0,2013-08-31 22:53:00
6:53 PM,77.0,71.1,82,29.90,8.0,Calm,Calm,-,N/A,,Clear,0,2013-08-31 23:53:00
7:53 PM,75.9,71.1,85,29.92,8.0,Calm,Calm,-,N/A,,Clear,0,2013-09-01 00:53:00
8:53 PM,75.0,69.1,82,29.93,8.0,ENE,13.8,20.7,N/A,,Mostly Cloudy,70,2013-09-01 01:53:00
9:53 PM,73.0,64.0,73,29.93,10.0,ESE,3.5,-,N/A,,Partly Cloudy,120,2013-09-01 02:53:00
10:53 PM,69.1,64.9,87,29.92,10.0,Calm,Calm,-,N/A,,Clear,0,2013-09-01 03:53:00
11:53 PM,69.1,64.9,87,29.90,10.0,Calm,Calm,-,N/A,,Clear,0,2013-09-01 04:53:00